createdAt,value
2022-12-25T00:00:06.630Z,10.50
2022-12-25T00:01:10.628Z,8.30
2022-12-25T00:02:12.502Z,8.10
2022-12-25T00:03:14.419Z,7.60
2022-12-25T00:04:16.374Z,7.75
2022-12-25T00:05:18.156Z,8.05
2022-12-25T00:06:20.080Z,8.57
2022-12-25T00:07:21.820Z,8.13
2022-12-25T00:08:23.545Z,7.50
2022-12-25T00:09:26.152Z,6.35
2022-12-25T00:10:27.937Z,7.35
2022-12-25T00:11:29.716Z,6.90
2022-12-25T00:12:31.449Z,6.60
2022-12-25T00:13:34.217Z,6.25
2022-12-25T00:14:36.016Z,6.03
2022-12-25T00:15:40.664Z,5.47
2022-12-25T00:16:42.655Z,5.88
2022-12-25T00:17:44.572Z,6.70
2022-12-25T00:18:47.226Z,6.20
2022-12-25T00:19:49.007Z,6.68
2022-12-25T00:21:02.497Z,5.43
2022-12-25T00:22:04.280Z,5.80
2022-12-25T00:23:07.954Z,6.15
2022-12-25T00:24:09.995Z,6.60
2022-12-25T00:25:12.056Z,5.60
2022-12-25T00:26:18.469Z,6.15
2022-12-25T00:27:20.308Z,6.28
2022-12-25T00:28:23.728Z,6.63
2022-12-25T00:29:25.803Z,5.53
2022-12-25T00:30:27.593Z,6.03
2022-12-25T00:31:29.442Z,6.95
2022-12-25T00:32:31.407Z,6.47
2022-12-25T00:33:36.106Z,5.75
2022-12-25T00:34:38.217Z,6.28
2022-12-25T00:35:40.743Z,7.22
2022-12-25T00:36:42.981Z,7.10
2022-12-25T00:37:45.412Z,6.68
2022-12-25T00:38:47.854Z,6.70
2022-12-25T00:39:49.699Z,7.38
2022-12-25T00:40:51.558Z,6.78
2022-12-25T00:41:53.578Z,6.22
2022-12-25T00:42:55.568Z,5.63
2022-12-25T00:43:57.439Z,5.95
2022-12-25T00:44:59.634Z,6.75
2022-12-25T00:46:04.280Z,6.65
2022-12-25T00:47:06.357Z,7.25
2022-12-25T00:48:08.264Z,6.80
2022-12-25T00:49:11.818Z,6.65
2022-12-25T00:50:14.005Z,7.05
2022-12-25T00:51:15.725Z,6.85
2022-12-25T00:52:23.684Z,7.72
2022-12-25T00:53:27.407Z,7.10
2022-12-25T00:54:29.345Z,7.35
2022-12-25T00:55:31.711Z,8.35
2022-12-25T00:56:33.743Z,8.20
2022-12-25T00:57:35.817Z,7.68
2022-12-25T00:58:37.651Z,7.75
2022-12-25T00:59:39.496Z,8.32
2022-12-25T01:00:41.301Z,8.18
2022-12-25T01:01:43.754Z,7.60
2022-12-25T01:02:45.862Z,8.13
2022-12-25T01:03:47.691Z,8.07
2022-12-25T01:04:58.550Z,7.97
2022-12-25T01:06:03.179Z,7.75
2022-12-25T01:07:04.929Z,7.32
2022-12-25T01:08:06.782Z,8.60
2022-12-25T01:09:08.612Z,7.50
2022-12-25T01:10:11.021Z,7.60
2022-12-25T01:11:12.951Z,8.57
2022-12-25T01:12:14.773Z,6.85
2022-12-25T01:13:16.619Z,7.60
2022-12-25T01:14:18.413Z,7.00
2022-12-25T01:15:20.842Z,10.13
2022-12-25T01:16:22.807Z,13.60
2022-12-25T01:17:24.791Z,9.20
2022-12-25T01:18:26.532Z,15.50
2022-12-25T01:19:28.239Z,13.23
2022-12-25T01:20:29.972Z,12.10
2022-12-25T01:21:32.075Z,17.58
2022-12-25T01:22:33.770Z,18.98
2022-12-25T01:23:36.192Z,10.48
2022-12-25T01:24:37.840Z,9.73
2022-12-25T01:25:39.638Z,7.88
2022-12-25T01:26:41.414Z,8.65
2022-12-25T01:27:43.145Z,8.68
2022-12-25T01:28:45.349Z,8.07
2022-12-25T01:29:47.225Z,8.82
2022-12-25T01:30:49.686Z,8.38
2022-12-25T01:31:51.500Z,7.53
2022-12-25T01:32:53.282Z,7.07
2022-12-25T01:33:55.020Z,6.82
2022-12-25T01:34:56.791Z,6.67
2022-12-25T01:35:58.577Z,7.07
2022-12-25T01:37:00.339Z,6.25
2022-12-25T01:38:02.055Z,9.35
2022-12-25T01:39:04.550Z,8.05
2022-12-25T01:40:07.260Z,7.05
2022-12-25T01:41:09.750Z,8.48
2022-12-25T01:42:20.201Z,7.07
2022-12-25T01:43:26.640Z,6.03
2022-12-25T01:44:37.124Z,6.97
2022-12-25T01:45:43.871Z,7.70
2022-12-25T01:46:46.100Z,6.95
2022-12-25T01:47:48.022Z,6.70
2022-12-25T01:48:50.411Z,6.88
2022-12-25T01:49:52.215Z,6.30
2022-12-25T01:50:58.191Z,7.63
2022-12-25T01:52:06.825Z,7.45
2022-12-25T01:53:08.941Z,7.45
2022-12-25T01:54:18.427Z,7.30
2022-12-25T01:55:20.351Z,7.18
2022-12-25T01:56:22.291Z,6.70
2022-12-25T01:57:28.988Z,6.82
2022-12-25T01:58:31.138Z,12.07
2022-12-25T01:59:33.285Z,16.45
2022-12-25T02:02:41.601Z,5.97
2022-12-25T02:03:43.579Z,6.20
2022-12-25T02:04:56.126Z,7.22
2022-12-25T02:05:59.122Z,6.57
2022-12-25T02:07:00.954Z,7.60
2022-12-25T02:08:08.567Z,6.63
2022-12-25T02:09:10.448Z,7.10
2022-12-25T02:10:13.095Z,7.75
2022-12-25T02:11:14.920Z,7.45
2022-12-25T02:12:37.595Z,7.47
2022-12-25T02:13:39.424Z,7.38
2022-12-25T02:14:41.341Z,7.10
2022-12-25T02:16:16.342Z,7.95
2022-12-25T02:17:36.193Z,7.15
2022-12-25T02:18:57.090Z,6.20
2022-12-25T02:20:11.024Z,6.97
2022-12-25T02:21:43.300Z,6.55
2022-12-25T02:23:04.382Z,6.93
2022-12-25T02:24:21.400Z,6.75
2022-12-25T02:25:41.541Z,6.28
2022-12-25T02:27:00.026Z,6.40
2022-12-25T02:28:10.933Z,7.10
2022-12-25T02:29:23.019Z,6.60
2022-12-25T02:30:25.245Z,6.82
2022-12-25T02:31:43.042Z,5.82
2022-12-25T02:32:47.213Z,6.27
2022-12-25T02:34:13.595Z,6.43
2022-12-25T02:35:19.760Z,7.35
2022-12-25T02:36:25.083Z,8.45
2022-12-25T02:37:30.016Z,6.72
2022-12-25T02:38:38.220Z,6.20
2022-12-25T02:39:52.338Z,6.70
2022-12-25T02:41:01.567Z,5.43
2022-12-25T02:42:07.569Z,6.70
2022-12-25T02:43:16.133Z,6.32
2022-12-25T02:44:23.060Z,6.37
2022-12-25T02:45:52.833Z,5.78
2022-12-25T02:46:55.679Z,5.38
2022-12-25T02:47:57.887Z,6.13
2022-12-25T02:49:03.785Z,6.72
2022-12-25T02:50:08.083Z,5.20
2022-12-25T02:51:12.932Z,6.43
2022-12-25T02:52:22.349Z,6.38
2022-12-25T02:53:24.385Z,6.55
2022-12-25T02:54:32.507Z,5.60
2022-12-25T02:55:39.304Z,5.67
2022-12-25T02:56:44.352Z,5.45
2022-12-25T02:57:50.754Z,5.20
2022-12-25T02:58:52.786Z,5.72
2022-12-25T02:59:57.225Z,5.15
2022-12-25T03:01:30.353Z,5.57
2022-12-25T03:02:34.102Z,5.35
2022-12-25T03:03:40.543Z,5.03
2022-12-25T03:04:44.656Z,5.38
2022-12-25T03:05:49.115Z,4.93
2022-12-25T03:07:06.618Z,4.97
2022-12-25T03:08:13.684Z,5.00
2022-12-25T03:09:28.892Z,4.90
2022-12-25T03:10:33.092Z,4.93
2022-12-25T03:11:35.120Z,5.38
2022-12-25T03:12:42.952Z,5.90
2022-12-25T03:13:49.940Z,5.85
2022-12-25T03:14:51.740Z,5.40
2022-12-25T03:15:53.833Z,5.97
2022-12-25T03:16:58.986Z,6.22
2022-12-25T03:18:04.567Z,5.80
2022-12-25T03:19:06.603Z,5.57
2022-12-25T03:20:09.179Z,6.30
2022-12-25T03:21:11.131Z,5.18
2022-12-25T03:22:19.388Z,5.95
2022-12-25T03:23:24.754Z,6.15
2022-12-25T03:24:26.588Z,5.78
2022-12-25T03:25:28.805Z,6.00
2022-12-25T03:26:30.695Z,6.07
2022-12-25T03:27:35.039Z,5.28
2022-12-25T03:28:36.921Z,5.90
2022-12-25T03:29:38.647Z,6.15
2022-12-25T03:30:53.976Z,6.97
2022-12-25T03:32:07.083Z,5.80
2022-12-25T03:33:44.376Z,6.28
2022-12-25T03:35:11.663Z,5.45
2022-12-25T03:36:20.585Z,6.00
2022-12-25T03:37:34.091Z,6.70
2022-12-25T03:38:55.189Z,6.00
2022-12-25T03:40:06.640Z,5.45
2022-12-25T03:41:17.916Z,9.73
2022-12-25T03:42:27.666Z,6.10
2022-12-25T03:43:49.378Z,6.55
2022-12-25T03:45:13.093Z,6.90
2022-12-25T03:46:17.684Z,6.82
2022-12-25T03:47:26.062Z,6.47
2022-12-25T03:48:31.406Z,7.65
2022-12-25T03:49:50.090Z,6.45
2022-12-25T03:50:56.573Z,7.25
2022-12-25T03:52:00.933Z,7.88
2022-12-25T03:53:22.608Z,7.80
2022-12-25T03:54:29.041Z,6.65
2022-12-25T03:55:31.684Z,8.02
2022-12-25T03:56:35.693Z,7.55
2022-12-25T03:57:37.442Z,8.05
2022-12-25T03:58:51.184Z,7.50
2022-12-25T03:59:53.022Z,7.72
2022-12-25T04:00:54.809Z,7.50
2022-12-25T04:01:56.778Z,7.30
2022-12-25T04:02:58.610Z,7.40
2022-12-25T04:04:00.615Z,7.83
2022-12-25T04:05:02.452Z,7.55
2022-12-25T04:06:04.361Z,8.50
2022-12-25T04:07:06.071Z,9.75
2022-12-25T04:08:07.745Z,10.20
2022-12-25T04:09:09.486Z,8.60
2022-12-25T04:10:11.535Z,8.13
2022-12-25T04:11:13.266Z,7.63
2022-12-25T04:12:15.092Z,8.30
2022-12-25T04:13:16.803Z,7.30
2022-12-25T04:14:18.555Z,7.17
2022-12-25T04:15:20.368Z,6.78
2022-12-25T04:16:22.173Z,7.00
2022-12-25T04:17:24.036Z,7.43
2022-12-25T04:18:25.697Z,6.72
2022-12-25T04:19:27.430Z,7.50
2022-12-25T04:20:29.307Z,7.00
2022-12-25T04:21:31.046Z,8.48
2022-12-25T04:22:32.839Z,7.72
2022-12-25T04:23:34.659Z,8.25
2022-12-25T04:24:36.464Z,8.07
2022-12-25T04:25:38.186Z,7.82
2022-12-25T04:26:40.006Z,7.63
2022-12-25T04:27:41.725Z,8.05
2022-12-25T04:28:43.514Z,7.20
2022-12-25T04:29:45.327Z,7.70
2022-12-25T04:30:47.673Z,8.10
2022-12-25T04:31:49.715Z,7.85
2022-12-25T04:32:56.525Z,7.60
2022-12-25T04:33:58.217Z,7.32
2022-12-25T04:34:59.913Z,7.53
2022-12-25T04:36:01.620Z,7.88
2022-12-25T04:37:03.393Z,7.68
2022-12-25T04:38:05.116Z,7.57
2022-12-25T04:39:07.204Z,8.45
2022-12-25T04:40:09.545Z,8.07
2022-12-25T04:41:13.457Z,7.07
2022-12-25T04:42:16.372Z,7.55
2022-12-25T04:43:18.109Z,7.38
2022-12-25T04:44:20.062Z,7.53
2022-12-25T04:45:21.722Z,8.70
2022-12-25T04:46:23.567Z,7.03
2022-12-25T04:47:25.381Z,7.72
2022-12-25T04:48:28.656Z,7.47
2022-12-25T04:49:30.386Z,8.15
2022-12-25T04:50:32.208Z,7.07
2022-12-25T04:51:34.081Z,7.93
2022-12-25T04:52:38.101Z,7.88
2022-12-25T04:53:39.916Z,7.55
2022-12-25T04:54:41.801Z,9.48
2022-12-25T04:55:43.700Z,8.33
2022-12-25T04:56:46.132Z,9.73
2022-12-25T04:57:48.021Z,9.27
2022-12-25T04:58:49.750Z,7.90
2022-12-25T04:59:51.496Z,7.80
2022-12-25T05:00:53.252Z,7.45
2022-12-25T05:01:55.028Z,7.97
2022-12-25T05:02:58.901Z,7.90
2022-12-25T05:04:00.907Z,7.53
2022-12-25T05:05:02.740Z,7.00
2022-12-25T05:06:05.316Z,7.30
2022-12-25T05:07:07.013Z,7.43
2022-12-25T05:08:08.769Z,6.90
2022-12-25T05:09:10.785Z,6.90
2022-12-25T05:10:12.792Z,7.15
2022-12-25T05:11:15.881Z,8.20
2022-12-25T05:12:17.675Z,7.50
2022-12-25T05:13:19.586Z,7.35
2022-12-25T05:14:21.421Z,8.05
2022-12-25T05:15:23.345Z,7.53
2022-12-25T05:16:25.192Z,7.97
2022-12-25T05:17:26.975Z,7.30
2022-12-25T05:18:28.692Z,7.65
2022-12-25T05:19:30.505Z,8.35
2022-12-25T05:20:38.157Z,7.45
2022-12-25T05:21:41.764Z,7.68
2022-12-25T05:22:43.429Z,7.65
2022-12-25T05:23:45.332Z,6.75
2022-12-25T05:24:47.092Z,7.38
2022-12-25T05:25:49.147Z,7.13
2022-12-25T05:26:50.842Z,7.57
2022-12-25T05:27:54.159Z,6.68
2022-12-25T05:28:56.030Z,8.13
2022-12-25T05:29:57.840Z,6.50
2022-12-25T05:30:59.672Z,6.50
2022-12-25T05:32:02.029Z,7.07
2022-12-25T05:33:04.069Z,7.22
2022-12-25T05:34:05.748Z,7.40
2022-12-25T05:35:07.860Z,8.10
2022-12-25T05:36:11.902Z,6.47
2022-12-25T05:37:14.024Z,6.70
2022-12-25T05:38:15.853Z,6.63
2022-12-25T05:39:17.611Z,6.63
2022-12-25T05:40:19.446Z,7.07
2022-12-25T05:41:21.289Z,8.25
2022-12-25T05:42:23.033Z,8.77
2022-12-25T05:43:25.144Z,7.45
2022-12-25T05:44:27.008Z,7.47
2022-12-25T05:45:28.791Z,9.02
2022-12-25T05:46:30.632Z,10.25
2022-12-25T05:47:32.463Z,13.80
2022-12-25T05:48:36.556Z,10.95
2022-12-25T05:49:38.309Z,11.52
2022-12-25T05:50:40.096Z,9.50
2022-12-25T05:51:41.812Z,8.75
2022-12-25T05:52:43.833Z,7.95
2022-12-25T05:53:45.521Z,7.05
2022-12-25T05:54:47.328Z,6.65
2022-12-25T05:55:49.110Z,6.35
2022-12-25T05:56:50.878Z,6.13
2022-12-25T05:57:52.681Z,6.57
2022-12-25T05:58:54.483Z,6.28
2022-12-25T05:59:56.520Z,6.43
2022-12-25T06:00:58.324Z,7.13
2022-12-25T06:02:00.403Z,6.53
2022-12-25T06:03:02.481Z,6.32
2022-12-25T06:04:08.532Z,7.18
2022-12-25T06:05:14.218Z,7.45
2022-12-25T06:06:16.101Z,7.47
2022-12-25T06:07:17.895Z,7.22
2022-12-25T06:08:19.907Z,7.70
2022-12-25T06:09:21.608Z,7.32
2022-12-25T06:10:23.661Z,7.47
2022-12-25T06:11:25.580Z,9.30
2022-12-25T06:12:27.369Z,12.52
2022-12-25T06:13:29.305Z,9.85
2022-12-25T06:14:31.096Z,7.65
2022-12-25T06:15:33.046Z,7.25
2022-12-25T06:16:38.258Z,6.63
2022-12-25T06:17:40.342Z,7.32
2022-12-25T06:18:46.031Z,6.90
2022-12-25T06:19:47.776Z,7.45
2022-12-25T06:20:49.474Z,7.07
2022-12-25T06:21:55.267Z,7.65
2022-12-25T06:22:56.925Z,7.57
2022-12-25T06:24:00.555Z,6.22
2022-12-25T06:25:02.482Z,7.45
2022-12-25T06:26:10.075Z,7.28
2022-12-25T06:27:11.985Z,7.25
2022-12-25T06:28:13.718Z,6.82
2022-12-25T06:29:15.730Z,7.30
2022-12-25T06:30:17.440Z,7.45
2022-12-25T06:31:21.690Z,7.38
2022-12-25T06:32:23.504Z,7.00
2022-12-25T06:33:25.213Z,6.60
2022-12-25T06:34:27.410Z,6.57
2022-12-25T06:35:29.218Z,6.30
2022-12-25T06:36:30.983Z,7.50
2022-12-25T06:37:32.787Z,6.45
2022-12-25T06:38:34.810Z,6.00
2022-12-25T06:39:36.487Z,6.20
2022-12-25T06:40:38.355Z,6.07
2022-12-25T06:41:40.064Z,6.78
2022-12-25T06:42:41.927Z,6.05
2022-12-25T06:43:43.899Z,6.60
2022-12-25T06:44:45.675Z,6.43
2022-12-25T06:45:47.414Z,6.55
2022-12-25T06:46:49.452Z,5.50
2022-12-25T06:47:51.218Z,6.28
2022-12-25T06:48:53.101Z,7.03
2022-12-25T06:49:54.977Z,6.53
2022-12-25T06:50:56.751Z,6.45
2022-12-25T06:51:58.584Z,6.30
2022-12-25T06:53:00.289Z,6.40
2022-12-25T06:54:02.371Z,6.65
2022-12-25T06:55:04.361Z,6.13
2022-12-25T06:56:15.351Z,6.80
2022-12-25T06:57:17.082Z,7.28
2022-12-25T06:58:18.989Z,6.45
2022-12-25T06:59:20.859Z,5.97
2022-12-25T07:00:22.609Z,6.63
2022-12-25T07:01:31.125Z,6.68
2022-12-25T07:02:34.626Z,6.75
2022-12-25T07:03:36.655Z,6.47
2022-12-25T07:04:46.142Z,6.15
2022-12-25T07:05:48.132Z,7.18
2022-12-25T07:06:50.014Z,6.93
2022-12-25T07:07:55.280Z,6.38
2022-12-25T07:08:58.766Z,6.90
2022-12-25T07:10:00.593Z,6.40
2022-12-25T07:11:03.949Z,5.97
2022-12-25T07:12:22.037Z,6.55
2022-12-25T07:13:26.297Z,6.53
2022-12-25T07:14:28.221Z,5.32
2022-12-25T07:15:30.007Z,6.22
2022-12-25T07:16:31.884Z,6.30
2022-12-25T07:17:34.694Z,5.88
2022-12-25T07:18:36.359Z,6.35
2022-12-25T07:19:44.485Z,7.78
2022-12-25T07:20:46.880Z,6.80
2022-12-25T07:21:48.906Z,10.70
2022-12-25T07:22:52.241Z,7.88
2022-12-25T07:23:54.008Z,8.20
2022-12-25T07:24:55.888Z,13.07
2022-12-25T07:25:59.806Z,10.85
2022-12-25T07:27:01.556Z,14.93
2022-12-25T07:28:03.402Z,8.82
2022-12-25T07:29:05.243Z,8.82
2022-12-25T07:30:07.974Z,12.10
2022-12-25T07:31:17.869Z,10.82
2022-12-25T07:32:19.663Z,12.17
2022-12-25T07:33:21.665Z,12.88
2022-12-25T07:34:23.491Z,10.98
2022-12-25T07:35:25.202Z,10.77
2022-12-25T07:36:28.186Z,8.27
2022-12-25T07:37:31.691Z,8.48
2022-12-25T07:38:35.046Z,11.15
2022-12-25T07:39:36.827Z,8.10
2022-12-25T07:40:39.750Z,10.48
2022-12-25T07:41:43.615Z,8.05
2022-12-25T07:42:46.973Z,8.30
2022-12-25T07:43:52.823Z,8.45
2022-12-25T07:44:56.226Z,7.63
2022-12-25T07:46:04.303Z,7.95
2022-12-25T07:47:06.189Z,6.47
2022-12-25T07:48:13.353Z,5.88
2022-12-25T07:49:19.577Z,6.53
2022-12-25T07:50:23.631Z,5.78
2022-12-25T07:51:26.413Z,6.88
2022-12-25T07:52:28.183Z,6.05
2022-12-25T07:53:31.507Z,5.50
2022-12-25T07:54:35.228Z,6.32
2022-12-25T07:55:37.309Z,6.30
2022-12-25T07:56:40.603Z,5.70
2022-12-25T07:57:43.891Z,5.55
2022-12-25T07:58:47.503Z,4.80
2022-12-25T07:59:58.809Z,4.88
2022-12-25T08:01:12.856Z,4.00
2022-12-25T08:02:17.086Z,4.35
2022-12-25T08:03:24.972Z,4.45
2022-12-25T08:04:28.824Z,6.40
2022-12-25T08:05:33.735Z,4.15
2022-12-25T08:06:37.355Z,4.22
2022-12-25T08:07:41.210Z,5.93
2022-12-25T08:08:45.153Z,3.45
2022-12-25T08:09:48.907Z,4.72
2022-12-25T08:10:51.998Z,3.72
2022-12-25T08:11:55.738Z,3.55
2022-12-25T08:12:59.037Z,4.78
2022-12-25T08:14:02.579Z,4.78
2022-12-25T08:15:05.893Z,2.70
2022-12-25T08:16:11.547Z,4.30
2022-12-25T08:17:15.200Z,3.60
2022-12-25T08:18:21.259Z,4.15
2022-12-25T08:19:27.459Z,4.20
2022-12-25T08:20:30.780Z,4.57
2022-12-25T08:21:34.629Z,3.47
2022-12-25T08:22:38.106Z,4.30
2022-12-25T08:23:45.876Z,6.10
2022-12-25T08:24:49.148Z,4.93
2022-12-25T08:25:52.626Z,3.27
2022-12-25T08:26:55.718Z,3.08
2022-12-25T08:28:00.394Z,3.05
2022-12-25T08:29:03.959Z,2.80
2022-12-25T08:30:07.761Z,3.20
2022-12-25T08:31:21.666Z,2.92
2022-12-25T08:32:24.956Z,3.45
2022-12-25T08:33:27.780Z,3.20
2022-12-25T08:34:31.727Z,3.08
2022-12-25T08:35:36.039Z,3.35
2022-12-25T08:36:39.004Z,3.40
2022-12-25T08:37:42.286Z,3.33
2022-12-25T08:38:45.821Z,3.17
2022-12-25T08:39:50.826Z,3.15
2022-12-25T08:40:54.331Z,3.42
2022-12-25T08:41:57.489Z,2.75
2022-12-25T08:43:01.167Z,3.10
2022-12-25T08:44:05.803Z,3.20
2022-12-25T08:45:09.539Z,3.20
2022-12-25T08:46:13.345Z,3.20
2022-12-25T08:47:17.174Z,3.17
2022-12-25T08:48:21.500Z,9.40
2022-12-25T08:49:24.774Z,8.40
2022-12-25T08:50:27.700Z,11.90
2022-12-25T08:51:31.260Z,4.57
2022-12-25T08:52:34.615Z,3.13
2022-12-25T08:53:38.004Z,3.72
2022-12-25T08:54:41.389Z,6.30
2022-12-25T08:55:44.735Z,3.97
2022-12-25T08:56:51.209Z,2.75
2022-12-25T08:57:54.686Z,3.60
2022-12-25T08:58:57.813Z,3.25
2022-12-25T09:00:01.248Z,3.10
2022-12-25T09:01:04.670Z,3.50
2022-12-25T09:02:08.357Z,2.63
2022-12-25T09:03:12.362Z,2.15
2022-12-25T09:04:15.670Z,2.00
2022-12-25T09:05:19.133Z,2.40
2022-12-25T09:06:22.725Z,2.22
2022-12-25T09:07:24.628Z,2.80
2022-12-25T09:08:27.984Z,3.03
2022-12-25T09:09:31.437Z,1.77
2022-12-25T09:10:37.747Z,2.38
2022-12-25T09:11:41.007Z,2.30
2022-12-25T09:12:42.966Z,2.40
2022-12-25T09:13:46.615Z,1.63
2022-12-25T09:14:50.035Z,2.00
2022-12-25T09:15:53.417Z,1.77
2022-12-25T09:16:56.873Z,2.10
2022-12-25T09:18:00.384Z,2.30
2022-12-25T09:19:04.253Z,2.20
2022-12-25T09:20:08.164Z,2.38
2022-12-25T09:21:13.679Z,2.35
2022-12-25T09:22:16.820Z,2.88
2022-12-25T09:23:20.454Z,3.97
2022-12-25T09:24:24.083Z,3.45
2022-12-25T09:25:27.546Z,3.58
2022-12-25T09:26:31.018Z,3.17
2022-12-25T09:27:34.223Z,3.25
2022-12-25T09:28:37.767Z,3.33
2022-12-25T09:29:41.307Z,2.47
2022-12-25T09:30:44.781Z,2.40
2022-12-25T09:31:47.924Z,2.60
2022-12-25T09:32:51.438Z,4.50
2022-12-25T09:33:57.636Z,2.97
2022-12-25T09:35:00.361Z,3.78
2022-12-25T09:36:05.447Z,2.40
2022-12-25T09:37:07.305Z,6.85
2022-12-25T09:38:10.883Z,5.15
2022-12-25T09:39:12.723Z,6.20
2022-12-25T09:40:20.833Z,2.40
2022-12-25T09:41:53.547Z,2.33
2022-12-25T09:42:57.497Z,3.92
2022-12-25T09:44:14.212Z,2.40
2022-12-25T09:45:26.755Z,5.70
2022-12-25T09:46:40.512Z,2.83
2022-12-25T09:47:47.973Z,3.83
2022-12-25T09:49:06.273Z,5.20
2022-12-25T09:50:22.555Z,6.65
2022-12-25T09:51:27.061Z,5.57
2022-12-25T09:52:44.308Z,2.10
2022-12-25T09:54:01.989Z,3.13
2022-12-25T09:55:19.629Z,1.65
2022-12-25T09:56:26.669Z,2.72
2022-12-25T09:57:30.080Z,3.78
2022-12-25T09:58:34.929Z,1.85
2022-12-25T09:59:38.776Z,3.88
2022-12-25T10:00:52.850Z,1.60
2022-12-25T10:02:21.927Z,1.98
2022-12-25T10:04:22.552Z,1.67
2022-12-25T10:06:09.023Z,1.90
2022-12-25T10:07:36.108Z,1.83
2022-12-25T10:08:47.522Z,2.00
2022-12-25T10:10:11.614Z,1.23
2022-12-25T10:11:50.867Z,1.25
2022-12-25T10:13:12.209Z,1.23
2022-12-25T10:14:31.775Z,1.30
2022-12-25T10:15:45.843Z,1.10
2022-12-25T10:17:32.930Z,1.35
2022-12-25T10:18:49.785Z,1.10
2022-12-25T10:20:17.670Z,1.30
2022-12-25T10:21:21.125Z,1.15
2022-12-25T10:22:34.670Z,1.52
2022-12-25T10:23:44.639Z,1.48
2022-12-25T10:24:52.773Z,1.13
2022-12-25T10:25:56.368Z,1.20
2022-12-25T10:27:01.764Z,4.93
2022-12-25T10:28:12.928Z,1.70
2022-12-25T10:29:20.909Z,1.30
2022-12-25T10:30:26.901Z,1.02
2022-12-25T10:31:32.771Z,1.23
2022-12-25T10:32:36.427Z,1.20
2022-12-25T10:33:42.820Z,1.30
2022-12-25T10:34:49.070Z,1.60
2022-12-25T10:35:52.712Z,1.05
2022-12-25T10:36:59.113Z,1.48
2022-12-25T10:38:15.527Z,1.35
2022-12-25T10:39:25.482Z,1.40
2022-12-25T10:40:49.455Z,1.25
2022-12-25T10:43:58.211Z,1.23
2022-12-25T10:45:09.498Z,0.90
2022-12-25T10:46:15.495Z,1.08
2022-12-25T10:47:42.154Z,0.93
2022-12-25T10:48:50.374Z,0.90
2022-12-25T10:49:54.490Z,1.05
2022-12-25T10:51:00.853Z,1.42
2022-12-25T10:52:04.988Z,1.13
2022-12-25T10:53:40.048Z,1.25
2022-12-25T10:54:49.477Z,0.98
2022-12-25T10:56:05.220Z,1.00
2022-12-25T10:57:14.057Z,1.15
2022-12-25T10:58:24.855Z,1.52
2022-12-25T10:59:35.780Z,1.35
2022-12-25T11:00:41.152Z,0.80
2022-12-25T11:01:45.004Z,0.75
2022-12-25T11:02:51.786Z,0.82
2022-12-25T11:03:55.270Z,0.95
2022-12-25T11:05:29.210Z,1.10
2022-12-25T11:06:36.402Z,0.77
2022-12-25T11:07:46.458Z,1.07
2022-12-25T11:09:02.523Z,1.20
2022-12-25T11:10:23.641Z,0.90
2022-12-25T11:11:28.380Z,0.70
2022-12-25T11:12:44.743Z,0.75
2022-12-25T11:14:03.548Z,0.85
2022-12-25T11:15:38.755Z,0.93
2022-12-25T11:16:42.943Z,1.20
2022-12-25T11:17:55.773Z,1.10
2022-12-25T11:19:00.398Z,1.10
2022-12-25T11:20:04.379Z,0.90
2022-12-25T11:21:39.400Z,1.10
2022-12-25T11:22:47.751Z,1.08
2022-12-25T11:24:01.789Z,0.88
2022-12-25T11:25:24.041Z,1.05
2022-12-25T11:26:28.220Z,1.10
2022-12-25T11:27:41.685Z,1.20
2022-12-25T11:28:46.549Z,1.63
2022-12-25T11:29:53.011Z,1.23
2022-12-25T11:31:15.032Z,1.08
2022-12-25T11:33:04.683Z,1.73
2022-12-25T11:34:54.562Z,1.00
2022-12-25T11:36:06.589Z,1.00
2022-12-25T11:37:25.723Z,1.25
2022-12-25T11:38:38.575Z,1.00
2022-12-25T11:40:54.631Z,1.10
2022-12-25T11:41:35.498Z,1.15
2022-12-25T11:43:16.204Z,1.23
2022-12-25T11:45:15.811Z,1.08
2022-12-25T11:50:36.202Z,1.42
2022-12-25T11:52:09.528Z,1.08
2022-12-25T11:53:31.564Z,1.20
2022-12-25T11:55:01.020Z,1.33
2022-12-25T11:56:27.026Z,0.80
2022-12-25T11:57:37.045Z,1.20
2022-12-25T11:58:57.464Z,1.35
2022-12-25T12:00:05.488Z,1.10
2022-12-25T12:01:32.452Z,1.00
2022-12-25T12:02:46.290Z,1.30
2022-12-25T12:04:09.262Z,3.65
2022-12-25T12:05:51.833Z,1.88
2022-12-25T12:07:27.445Z,1.92
2022-12-25T12:08:48.824Z,3.42
2022-12-25T12:10:27.236Z,6.95
2022-12-25T12:11:40.902Z,6.20
2022-12-25T12:13:20.808Z,5.78
2022-12-25T12:15:00.894Z,2.40
2022-12-25T12:16:03.191Z,2.50
2022-12-25T12:17:08.034Z,3.47
2022-12-25T12:18:23.626Z,4.00
2022-12-25T12:19:27.083Z,1.55
2022-12-25T12:20:32.215Z,1.35
2022-12-25T12:21:34.656Z,1.38
2022-12-25T12:22:37.764Z,4.80
2022-12-25T12:24:17.822Z,2.92
2022-12-25T12:25:22.723Z,3.80
2022-12-25T12:26:37.379Z,2.67
2022-12-25T12:27:45.121Z,2.13
2022-12-25T12:28:50.450Z,3.90
2022-12-25T12:29:55.894Z,2.20
2022-12-25T12:31:06.302Z,4.78
2022-12-25T12:32:24.029Z,2.50
2022-12-25T12:33:33.424Z,1.63
2022-12-25T12:45:36.681Z,1.85
2022-12-25T12:46:50.685Z,2.05
2022-12-25T12:47:55.549Z,1.67
2022-12-25T12:49:34.467Z,1.90
2022-12-25T12:50:40.395Z,5.95
2022-12-25T12:51:44.621Z,4.57
2022-12-25T12:52:49.831Z,11.90
2022-12-25T12:53:51.646Z,10.15
2022-12-25T12:55:08.713Z,2.28
2022-12-25T12:56:18.165Z,9.52
2022-12-25T12:57:30.479Z,3.25
2022-12-25T12:58:35.807Z,1.80
2022-12-25T12:59:44.523Z,2.93
2022-12-25T13:01:14.637Z,2.17
2022-12-25T13:02:33.455Z,2.38
2022-12-25T13:04:05.385Z,2.17
2022-12-25T13:07:20.796Z,2.95
2022-12-25T13:08:48.386Z,1.88
2022-12-25T13:10:23.892Z,3.08
2022-12-25T13:11:37.906Z,2.75
2022-12-25T13:12:42.770Z,2.40
2022-12-25T13:13:51.004Z,2.70
2022-12-25T13:14:54.744Z,8.45
2022-12-25T13:15:57.847Z,2.97
2022-12-25T13:17:02.808Z,3.40
2022-12-25T13:18:11.066Z,0.98
2022-12-25T13:19:20.970Z,1.48
2022-12-25T13:20:39.966Z,2.45
2022-12-25T13:21:52.980Z,1.40
2022-12-25T13:22:56.825Z,1.60
2022-12-25T13:24:12.667Z,1.70
2022-12-25T13:25:22.944Z,1.40
2022-12-25T13:26:26.191Z,1.35
2022-12-25T13:27:31.527Z,1.40
2022-12-25T13:28:37.972Z,1.30
2022-12-25T13:29:41.696Z,1.48
2022-12-25T13:30:51.118Z,1.20
2022-12-25T13:31:55.533Z,1.15
2022-12-25T13:33:06.143Z,1.40
2022-12-25T13:36:56.176Z,1.40
2022-12-25T13:38:30.169Z,1.13
2022-12-25T13:39:48.742Z,1.20
2022-12-25T13:43:16.326Z,1.10
2022-12-25T13:44:40.662Z,1.20
2022-12-25T13:46:00.389Z,1.13
2022-12-25T13:47:37.956Z,1.00
2022-12-25T13:49:36.303Z,0.88
2022-12-25T13:50:41.114Z,1.10
2022-12-25T13:51:45.479Z,1.30
2022-12-25T13:52:52.008Z,1.63
2022-12-25T13:54:12.165Z,0.90
2022-12-25T13:55:26.565Z,1.27
2022-12-25T13:56:31.309Z,2.05
2022-12-25T13:58:07.516Z,1.80
2022-12-25T13:59:21.474Z,2.53
2022-12-25T14:00:30.206Z,1.80
2022-12-25T14:01:34.453Z,1.33
2022-12-25T14:02:38.839Z,1.20
2022-12-25T14:03:44.953Z,2.33
2022-12-25T14:04:48.283Z,2.27
2022-12-25T14:06:03.341Z,2.83
2022-12-25T14:07:13.022Z,2.90
2022-12-25T14:08:25.209Z,2.30
2022-12-25T14:09:28.561Z,1.60
2022-12-25T14:10:39.864Z,1.58
2022-12-25T14:11:46.363Z,2.28
2022-12-25T14:12:51.523Z,1.65
2022-12-25T14:13:59.064Z,1.63
2022-12-25T14:15:04.086Z,1.67
2022-12-25T14:16:07.228Z,2.40
2022-12-25T14:17:12.954Z,2.55
2022-12-25T14:18:21.433Z,1.63
2022-12-25T14:19:30.178Z,1.00
2022-12-25T14:20:38.307Z,1.42
2022-12-25T14:21:44.675Z,1.05
2022-12-25T14:22:52.827Z,2.78
2022-12-25T14:23:56.223Z,1.45
2022-12-25T14:26:23.596Z,1.63
2022-12-25T14:27:30.917Z,2.40
2022-12-25T14:28:34.178Z,4.28
2022-12-25T14:29:45.588Z,3.70
2022-12-25T14:30:48.993Z,5.88
2022-12-25T14:31:53.523Z,6.97
2022-12-25T14:32:57.812Z,4.38
2022-12-25T14:34:03.847Z,3.08
2022-12-25T14:35:07.211Z,1.55
2022-12-25T14:36:14.000Z,2.30
2022-12-25T14:37:23.541Z,1.55
2022-12-25T14:38:31.666Z,1.17
2022-12-25T14:39:38.735Z,1.10
2022-12-25T14:40:42.215Z,1.40
2022-12-25T14:41:53.995Z,1.02
2022-12-25T14:43:02.394Z,1.10
2022-12-25T14:44:26.247Z,1.42
2022-12-25T14:45:37.229Z,1.40
2022-12-25T14:46:40.806Z,1.70
2022-12-25T14:47:58.424Z,2.47
2022-12-25T14:49:05.617Z,1.40
2022-12-25T14:50:35.922Z,1.87
2022-12-25T14:51:40.396Z,1.30
2022-12-25T14:52:53.617Z,1.40
2022-12-25T14:53:58.885Z,1.20
2022-12-25T14:55:27.231Z,1.33
2022-12-25T14:56:32.946Z,1.10
2022-12-25T14:57:40.571Z,1.17
2022-12-25T14:58:53.313Z,1.30
2022-12-25T15:00:01.865Z,1.20
2022-12-25T15:01:06.460Z,0.88
2022-12-25T15:02:19.152Z,1.30
2022-12-25T15:03:28.370Z,1.00
2022-12-25T15:04:31.676Z,1.30
2022-12-25T15:05:38.171Z,1.20
2022-12-25T15:06:55.823Z,1.95
2022-12-25T15:08:32.902Z,8.38
2022-12-25T15:09:40.743Z,8.65
2022-12-25T15:11:02.656Z,6.80
2022-12-25T15:12:07.428Z,2.65
2022-12-25T15:13:10.853Z,1.25
2022-12-25T15:14:18.297Z,1.30
2022-12-25T15:15:30.745Z,1.83
2022-12-25T15:16:46.369Z,2.17
2022-12-25T15:18:26.160Z,1.35
2022-12-25T15:21:32.678Z,1.08
2022-12-25T15:23:10.142Z,1.45
2022-12-25T15:24:07.909Z,1.98
2022-12-25T15:25:15.442Z,1.48